CYTS

Timmins Airport

Timmins, , Canada
METAR CYTS 181400Z 32009KT 15SM -SN BKN017 BKN035 M24/M27 A2998 RMK SC5SC2 SLP186
Observed Flight Rules
Jan-18 @ 14:00 UTC (35 minutes ago) Marginal Visual Flight Rules
Wind Visibility Clouds Conditions
320° at 9 knots 15 miles
  • Broken at 1,700' AGL
  • Broken at 3,500' AGL
  • Light Snow
Temperatures Readings
Current -24°C / -11°F
Dewpoint -27°C / -17°F
Humidity 76%
Altimeter 29.98" Hg
Pressure 1018.6 hPa
Elevation 295
METAR CYTS 181400Z 32009KT 15SM -SN BKN017 BKN035 M24/M27 A2998 RMK SC5SC2 SLP186
Observed Flight Rules
Jan-18 @ 14:00 UTC
(35 minutes ago)
MVFR
Wind Visibility
320° at 9 knots 15 miles
Clouds
  • Broken at 1,700' AGL
  • Broken at 3,500' AGL
Conditions
  • Light Snow
Temperature Dewpoint
-24°C / -11°F -27°C / -17°F
Humidity Altimeter Pressure
76% 29.98" Hg 1018.6 hPa